Weather at Wadahl

Public forecast

Using degrees Celsius for public forecast. Weather courtesy of forecast.io.

Closest aviation weather report (METAR) to Wadahl

Closest report is Røros Airport, 78.0 nm (144.5 km) NNE.

2024/05/30 02:50 (retrieved 29 minutes ago)

ENRO 300250Z AUTO VRB01KT 9999 NCD 03/02 Q1011

Closest aviation forecast (TAF) to Wadahl

Forecast is more than 12 hours old.

Closest forecast is Quaqtaq Airport, 2,147.5 nm (3,977.1 km) NW.

2024/05/29 14:00 (retrieved 13 hours ago)

TAF CYHA 291340Z 2914/2921 28007KT P6SM BKN030 TEMPO 2914/2918 BKN020 BECMG 2916/2918 18008KT RMK NXT FCST BY 301400Z